<?xml version="1.0" encoding="UTF-8" standalone="no" ?>
<gpx xmlns="http://www.topografix.com/GPX/1/1" xmlns:xsi="http://www.w3.org/2001/XMLSchema-instance" xsi:schemaLocation="http://www.topografix.com/GPX/1/1 http://www.topografix.com/GPX/1/1/gpx.xsd" version="1.1" creator="VisuGPX - https://www.visugpx.com">
  <metadata>
    <name>2H  de marche à LUGAN Tarn</name>
    <desc><![CDATA[Départ église Lugan puis prendre a droite avant cimetière direction lieu dit Orléans ]]></desc>
  </metadata>
  <trk>
    <name><![CDATA[2017-09-03 11:28:13]]></name>
    <trkseg>
      <trkpt lat="43.73382" lon="1.71657">
        <ele>199.61</ele>
        <time>2017-09-03T07:13:08Z</time>
      </trkpt>
      <trkpt lat="43.73382" lon="1.71657">
        <ele>199.61</ele>
        <time>2017-09-03T07:13:09Z</time>
      </trkpt>
      <trkpt lat="43.73377" lon="1.71653">
        <ele>199.61</ele>
        <time>2017-09-03T07:13:26Z</time>
      </trkpt>
      <trkpt lat="43.7337" lon="1.71639">
        <ele>199.61</ele>
        <time>2017-09-03T07:13:41Z</time>
      </trkpt>
      <trkpt lat="43.73361" lon="1.71624">
        <ele>199.61</ele>
        <time>2017-09-03T07:13:54Z</time>
      </trkpt>
      <trkpt lat="43.73359" lon="1.71621">
        <ele>198.17</ele>
        <time>2017-09-03T07:13:57Z</time>
      </trkpt>
      <trkpt lat="43.73343" lon="1.71598">
        <ele>196.73</ele>
        <time>2017-09-03T07:14:17Z</time>
      </trkpt>
      <trkpt lat="43.73335" lon="1.71585">
        <ele>194.8</ele>
        <time>2017-09-03T07:14:37Z</time>
      </trkpt>
      <trkpt lat="43.73329" lon="1.71578">
        <ele>194.32</ele>
        <time>2017-09-03T07:14:45Z</time>
      </trkpt>
      <trkpt lat="43.73315" lon="1.71583">
        <ele>191.44</ele>
        <time>2017-09-03T07:15:03Z</time>
      </trkpt>
      <trkpt lat="43.73303" lon="1.71578">
        <ele>189.04</ele>
        <time>2017-09-03T07:15:18Z</time>
      </trkpt>
      <trkpt lat="43.7329" lon="1.71571">
        <ele>187.59</ele>
        <time>2017-09-03T07:15:31Z</time>
      </trkpt>
      <trkpt lat="43.73266" lon="1.71567">
        <ele>186.15</ele>
        <time>2017-09-03T07:15:50Z</time>
      </trkpt>
      <trkpt lat="43.73248" lon="1.71566">
        <ele>185.67</ele>
        <time>2017-09-03T07:16:06Z</time>
      </trkpt>
      <trkpt lat="43.73234" lon="1.71554">
        <ele>187.11</ele>
        <time>2017-09-03T07:16:19Z</time>
      </trkpt>
      <trkpt lat="43.73218" lon="1.71534">
        <ele>189.04</ele>
        <time>2017-09-03T07:16:37Z</time>
      </trkpt>
      <trkpt lat="43.73205" lon="1.71517">
        <ele>191.92</ele>
        <time>2017-09-03T07:16:56Z</time>
      </trkpt>
      <trkpt lat="43.73193" lon="1.71501">
        <ele>194.8</ele>
        <time>2017-09-03T07:17:12Z</time>
      </trkpt>
      <trkpt lat="43.73188" lon="1.71497">
        <ele>195.77</ele>
        <time>2017-09-03T07:17:17Z</time>
      </trkpt>
      <trkpt lat="43.73181" lon="1.71489">
        <ele>196.73</ele>
        <time>2017-09-03T07:17:35Z</time>
      </trkpt>
      <trkpt lat="43.73167" lon="1.71464">
        <ele>198.17</ele>
        <time>2017-09-03T07:17:55Z</time>
      </trkpt>
      <trkpt lat="43.73153" lon="1.71446">
        <ele>200.09</ele>
        <time>2017-09-03T07:18:13Z</time>
      </trkpt>
      <trkpt lat="43.73142" lon="1.7142">
        <ele>202.01</ele>
        <time>2017-09-03T07:18:32Z</time>
      </trkpt>
      <trkpt lat="43.73135" lon="1.7139">
        <ele>205.38</ele>
        <time>2017-09-03T07:18:53Z</time>
      </trkpt>
      <trkpt lat="43.73139" lon="1.71354">
        <ele>204.42</ele>
        <time>2017-09-03T07:19:18Z</time>
      </trkpt>
      <trkpt lat="43.73142" lon="1.71327">
        <ele>202.98</ele>
        <time>2017-09-03T07:19:35Z</time>
      </trkpt>
      <trkpt lat="43.73148" lon="1.71315">
        <ele>200.57</ele>
        <time>2017-09-03T07:19:43Z</time>
      </trkpt>
      <trkpt lat="43.73153" lon="1.71308">
        <ele>199.13</ele>
        <time>2017-09-03T07:19:49Z</time>
      </trkpt>
      <trkpt lat="43.73155" lon="1.71291">
        <ele>198.17</ele>
        <time>2017-09-03T07:20:04Z</time>
      </trkpt>
      <trkpt lat="43.73148" lon="1.71264">
        <ele>196.73</ele>
        <time>2017-09-03T07:20:22Z</time>
      </trkpt>
      <trkpt lat="43.73138" lon="1.71242">
        <ele>195.77</ele>
        <time>2017-09-03T07:20:38Z</time>
      </trkpt>
      <trkpt lat="43.73126" lon="1.71217">
        <ele>197.21</ele>
        <time>2017-09-03T07:20:55Z</time>
      </trkpt>
      <trkpt lat="43.73116" lon="1.71194">
        <ele>197.69</ele>
        <time>2017-09-03T07:21:12Z</time>
      </trkpt>
      <trkpt lat="43.73107" lon="1.71171">
        <ele>197.69</ele>
        <time>2017-09-03T07:21:29Z</time>
      </trkpt>
      <trkpt lat="43.73104" lon="1.71166">
        <ele>196.73</ele>
        <time>2017-09-03T07:21:33Z</time>
      </trkpt>
      <trkpt lat="43.73088" lon="1.71139">
        <ele>194.32</ele>
        <time>2017-09-03T07:21:50Z</time>
      </trkpt>
      <trkpt lat="43.73076" lon="1.71117">
        <ele>192.4</ele>
        <time>2017-09-03T07:22:06Z</time>
      </trkpt>
      <trkpt lat="43.73065" lon="1.71096">
        <ele>191.92</ele>
        <time>2017-09-03T07:22:21Z</time>
      </trkpt>
      <trkpt lat="43.73057" lon="1.71072">
        <ele>190.96</ele>
        <time>2017-09-03T07:22:38Z</time>
      </trkpt>
      <trkpt lat="43.73046" lon="1.71045">
        <ele>190</ele>
        <time>2017-09-03T07:22:54Z</time>
      </trkpt>
      <trkpt lat="43.73037" lon="1.71017">
        <ele>190</ele>
        <time>2017-09-03T07:23:11Z</time>
      </trkpt>
      <trkpt lat="43.7303" lon="1.70999">
        <ele>190.96</ele>
        <time>2017-09-03T07:23:22Z</time>
      </trkpt>
      <trkpt lat="43.73028" lon="1.70992">
        <ele>189.04</ele>
        <time>2017-09-03T07:23:26Z</time>
      </trkpt>
      <trkpt lat="43.73018" lon="1.70971">
        <ele>189.04</ele>
        <time>2017-09-03T07:23:41Z</time>
      </trkpt>
      <trkpt lat="43.73006" lon="1.70951">
        <ele>187.11</ele>
        <time>2017-09-03T07:23:56Z</time>
      </trkpt>
      <trkpt lat="43.73001" lon="1.7093">
        <ele>186.15</ele>
        <time>2017-09-03T07:24:10Z</time>
      </trkpt>
      <trkpt lat="43.73" lon="1.70906">
        <ele>184.71</ele>
        <time>2017-09-03T07:24:26Z</time>
      </trkpt>
      <trkpt lat="43.73001" lon="1.7088">
        <ele>181.35</ele>
        <time>2017-09-03T07:24:42Z</time>
      </trkpt>
      <trkpt lat="43.72998" lon="1.70868">
        <ele>179.9</ele>
        <time>2017-09-03T07:24:55Z</time>
      </trkpt>
      <trkpt lat="43.72992" lon="1.7084">
        <ele>179.42</ele>
        <time>2017-09-03T07:25:13Z</time>
      </trkpt>
      <trkpt lat="43.7298" lon="1.7082">
        <ele>177.98</ele>
        <time>2017-09-03T07:25:28Z</time>
      </trkpt>
      <trkpt lat="43.72969" lon="1.70806">
        <ele>177.5</ele>
        <time>2017-09-03T07:25:44Z</time>
      </trkpt>
      <trkpt lat="43.72972" lon="1.70804">
        <ele>177.5</ele>
        <time>2017-09-03T07:26:05Z</time>
      </trkpt>
      <trkpt lat="43.72967" lon="1.70803">
        <ele>177.5</ele>
        <time>2017-09-03T07:26:27Z</time>
      </trkpt>
      <trkpt lat="43.72968" lon="1.708">
        <ele>177.5</ele>
        <time>2017-09-03T07:26:53Z</time>
      </trkpt>
      <trkpt lat="43.7297" lon="1.70798">
        <ele>177.5</ele>
        <time>2017-09-03T07:27:15Z</time>
      </trkpt>
      <trkpt lat="43.72968" lon="1.70798">
        <ele>177.5</ele>
        <time>2017-09-03T07:27:41Z</time>
      </trkpt>
      <trkpt lat="43.7295" lon="1.70796">
        <ele>178.94</ele>
        <time>2017-09-03T07:28:00Z</time>
      </trkpt>
      <trkpt lat="43.72937" lon="1.70791">
        <ele>178.94</ele>
        <time>2017-09-03T07:28:15Z</time>
      </trkpt>
      <trkpt lat="43.72932" lon="1.70788">
        <ele>179.42</ele>
        <time>2017-09-03T07:28:20Z</time>
      </trkpt>
      <trkpt lat="43.72928" lon="1.70785">
        <ele>179.42</ele>
        <time>2017-09-03T07:28:25Z</time>
      </trkpt>
      <trkpt lat="43.72918" lon="1.70775">
        <ele>180.38</ele>
        <time>2017-09-03T07:28:43Z</time>
      </trkpt>
      <trkpt lat="43.72902" lon="1.7077">
        <ele>180.38</ele>
        <time>2017-09-03T07:29:01Z</time>
      </trkpt>
      <trkpt lat="43.72879" lon="1.70764">
        <ele>181.35</ele>
        <time>2017-09-03T07:29:23Z</time>
      </trkpt>
      <trkpt lat="43.72861" lon="1.70754">
        <ele>181.35</ele>
        <time>2017-09-03T07:29:40Z</time>
      </trkpt>
      <trkpt lat="43.72861" lon="1.70736">
        <ele>182.79</ele>
        <time>2017-09-03T07:29:56Z</time>
      </trkpt>
      <trkpt lat="43.72862" lon="1.7073">
        <ele>182.79</ele>
        <time>2017-09-03T07:30:00Z</time>
      </trkpt>
      <trkpt lat="43.7287" lon="1.70705">
        <ele>185.67</ele>
        <time>2017-09-03T07:30:21Z</time>
      </trkpt>
      <trkpt lat="43.72876" lon="1.70685">
        <ele>188.08</ele>
        <time>2017-09-03T07:30:37Z</time>
      </trkpt>
      <trkpt lat="43.72881" lon="1.70661">
        <ele>190</ele>
        <time>2017-09-03T07:30:58Z</time>
      </trkpt>
      <trkpt lat="43.72883" lon="1.70638">
        <ele>192.4</ele>
        <time>2017-09-03T07:31:17Z</time>
      </trkpt>
      <trkpt lat="43.72884" lon="1.70614">
        <ele>193.84</ele>
        <time>2017-09-03T07:31:36Z</time>
      </trkpt>
      <trkpt lat="43.72882" lon="1.70603">
        <ele>194.8</ele>
        <time>2017-09-03T07:31:45Z</time>
      </trkpt>
      <trkpt lat="43.7288" lon="1.70578">
        <ele>197.21</ele>
        <time>2017-09-03T07:32:04Z</time>
      </trkpt>
      <trkpt lat="43.72879" lon="1.70555">
        <ele>199.61</ele>
        <time>2017-09-03T07:32:21Z</time>
      </trkpt>
      <trkpt lat="43.72878" lon="1.70535">
        <ele>201.53</ele>
        <time>2017-09-03T07:32:39Z</time>
      </trkpt>
      <trkpt lat="43.72878" lon="1.70524">
        <ele>202.49</ele>
        <time>2017-09-03T07:32:47Z</time>
      </trkpt>
      <trkpt lat="43.72884" lon="1.70526">
        <ele>202.49</ele>
        <time>2017-09-03T07:32:54Z</time>
      </trkpt>
      <trkpt lat="43.72902" lon="1.70543">
        <ele>203.46</ele>
        <time>2017-09-03T07:33:15Z</time>
      </trkpt>
      <trkpt lat="43.72916" lon="1.70557">
        <ele>204.9</ele>
        <time>2017-09-03T07:33:34Z</time>
      </trkpt>
      <trkpt lat="43.72929" lon="1.70569">
        <ele>207.3</ele>
        <time>2017-09-03T07:33:51Z</time>
      </trkpt>
      <trkpt lat="43.72941" lon="1.70573">
        <ele>210.19</ele>
        <time>2017-09-03T07:34:09Z</time>
      </trkpt>
      <trkpt lat="43.72942" lon="1.70572">
        <ele>210.19</ele>
        <time>2017-09-03T07:34:35Z</time>
      </trkpt>
      <trkpt lat="43.72941" lon="1.70568">
        <ele>210.19</ele>
        <time>2017-09-03T07:35:02Z</time>
      </trkpt>
      <trkpt lat="43.72944" lon="1.70569">
        <ele>210.67</ele>
        <time>2017-09-03T07:35:12Z</time>
      </trkpt>
      <trkpt lat="43.72946" lon="1.70556">
        <ele>211.63</ele>
        <time>2017-09-03T07:35:22Z</time>
      </trkpt>
      <trkpt lat="43.72944" lon="1.70551">
        <ele>211.63</ele>
        <time>2017-09-03T07:35:26Z</time>
      </trkpt>
      <trkpt lat="43.7294" lon="1.70523">
        <ele>213.07</ele>
        <time>2017-09-03T07:35:46Z</time>
      </trkpt>
      <trkpt lat="43.72931" lon="1.70495">
        <ele>213.07</ele>
        <time>2017-09-03T07:36:06Z</time>
      </trkpt>
      <trkpt lat="43.72922" lon="1.70465">
        <ele>213.55</ele>
        <time>2017-09-03T07:36:27Z</time>
      </trkpt>
      <trkpt lat="43.72913" lon="1.70443">
        <ele>214.03</ele>
        <time>2017-09-03T07:36:46Z</time>
      </trkpt>
      <trkpt lat="43.72911" lon="1.70438">
        <ele>214.99</ele>
        <time>2017-09-03T07:36:50Z</time>
      </trkpt>
      <trkpt lat="43.7291" lon="1.70434">
        <ele>214.99</ele>
        <time>2017-09-03T07:36:53Z</time>
      </trkpt>
      <trkpt lat="43.729" lon="1.70406">
        <ele>215.47</ele>
        <time>2017-09-03T07:37:12Z</time>
      </trkpt>
      <trkpt lat="43.72891" lon="1.70379">
        <ele>215.47</ele>
        <time>2017-09-03T07:37:31Z</time>
      </trkpt>
      <trkpt lat="43.72889" lon="1.70373">
        <ele>215.95</ele>
        <time>2017-09-03T07:37:35Z</time>
      </trkpt>
      <trkpt lat="43.72878" lon="1.70344">
        <ele>216.43</ele>
        <time>2017-09-03T07:37:55Z</time>
      </trkpt>
      <trkpt lat="43.72869" lon="1.70316">
        <ele>217.4</ele>
        <time>2017-09-03T07:38:14Z</time>
      </trkpt>
      <trkpt lat="43.72858" lon="1.70289">
        <ele>217.88</ele>
        <time>2017-09-03T07:38:35Z</time>
      </trkpt>
      <trkpt lat="43.72856" lon="1.70287">
        <ele>218.36</ele>
        <time>2017-09-03T07:38:52Z</time>
      </trkpt>
      <trkpt lat="43.72853" lon="1.70287">
        <ele>218.36</ele>
        <time>2017-09-03T07:39:10Z</time>
      </trkpt>
      <trkpt lat="43.72827" lon="1.70298">
        <ele>218.36</ele>
        <time>2017-09-03T07:39:33Z</time>
      </trkpt>
      <trkpt lat="43.72796" lon="1.70305">
        <ele>218.84</ele>
        <time>2017-09-03T07:39:58Z</time>
      </trkpt>
      <trkpt lat="43.72763" lon="1.7031">
        <ele>219.8</ele>
        <time>2017-09-03T07:40:25Z</time>
      </trkpt>
      <trkpt lat="43.72747" lon="1.70312">
        <ele>220.28</ele>
        <time>2017-09-03T07:40:42Z</time>
      </trkpt>
      <trkpt lat="43.72723" lon="1.70316">
        <ele>221.24</ele>
        <time>2017-09-03T07:41:05Z</time>
      </trkpt>
      <trkpt lat="43.72694" lon="1.70322">
        <ele>222.2</ele>
        <time>2017-09-03T07:41:29Z</time>
      </trkpt>
      <trkpt lat="43.72664" lon="1.70329">
        <ele>222.2</ele>
        <time>2017-09-03T07:41:53Z</time>
      </trkpt>
      <trkpt lat="43.72633" lon="1.70337">
        <ele>222.2</ele>
        <time>2017-09-03T07:42:19Z</time>
      </trkpt>
      <trkpt lat="43.72606" lon="1.70343">
        <ele>222.2</ele>
        <time>2017-09-03T07:42:41Z</time>
      </trkpt>
      <trkpt lat="43.7257" lon="1.70352">
        <ele>222.2</ele>
        <time>2017-09-03T07:43:11Z</time>
      </trkpt>
      <trkpt lat="43.72542" lon="1.70359">
        <ele>222.2</ele>
        <time>2017-09-03T07:43:34Z</time>
      </trkpt>
      <trkpt lat="43.72517" lon="1.70364">
        <ele>222.2</ele>
        <time>2017-09-03T07:43:56Z</time>
      </trkpt>
      <trkpt lat="43.72488" lon="1.70373">
        <ele>222.68</ele>
        <time>2017-09-03T07:44:21Z</time>
      </trkpt>
      <trkpt lat="43.72465" lon="1.7038">
        <ele>223.16</ele>
        <time>2017-09-03T07:44:41Z</time>
      </trkpt>
      <trkpt lat="43.72439" lon="1.70388">
        <ele>224.12</ele>
        <time>2017-09-03T07:45:03Z</time>
      </trkpt>
      <trkpt lat="43.72409" lon="1.70395">
        <ele>224.61</ele>
        <time>2017-09-03T07:45:27Z</time>
      </trkpt>
      <trkpt lat="43.7238" lon="1.70403">
        <ele>224.61</ele>
        <time>2017-09-03T07:45:48Z</time>
      </trkpt>
      <trkpt lat="43.72354" lon="1.70413">
        <ele>224.61</ele>
        <time>2017-09-03T07:46:09Z</time>
      </trkpt>
      <trkpt lat="43.7233" lon="1.70424">
        <ele>224.61</ele>
        <time>2017-09-03T07:46:30Z</time>
      </trkpt>
      <trkpt lat="43.72308" lon="1.70439">
        <ele>224.61</ele>
        <time>2017-09-03T07:46:49Z</time>
      </trkpt>
      <trkpt lat="43.72288" lon="1.70463">
        <ele>224.61</ele>
        <time>2017-09-03T07:47:10Z</time>
      </trkpt>
      <trkpt lat="43.72268" lon="1.70487">
        <ele>224.61</ele>
        <time>2017-09-03T07:47:31Z</time>
      </trkpt>
      <trkpt lat="43.72246" lon="1.70512">
        <ele>224.61</ele>
        <time>2017-09-03T07:47:53Z</time>
      </trkpt>
      <trkpt lat="43.72217" lon="1.7053">
        <ele>224.61</ele>
        <time>2017-09-03T07:48:18Z</time>
      </trkpt>
      <trkpt lat="43.72192" lon="1.70541">
        <ele>224.61</ele>
        <time>2017-09-03T07:48:40Z</time>
      </trkpt>
      <trkpt lat="43.72169" lon="1.70546">
        <ele>224.61</ele>
        <time>2017-09-03T07:48:58Z</time>
      </trkpt>
      <trkpt lat="43.72147" lon="1.70554">
        <ele>225.09</ele>
        <time>2017-09-03T07:49:16Z</time>
      </trkpt>
      <trkpt lat="43.72138" lon="1.7056">
        <ele>225.09</ele>
        <time>2017-09-03T07:49:32Z</time>
      </trkpt>
      <trkpt lat="43.72136" lon="1.70568">
        <ele>224.61</ele>
        <time>2017-09-03T07:49:47Z</time>
      </trkpt>
      <trkpt lat="43.72135" lon="1.70567">
        <ele>224.61</ele>
        <time>2017-09-03T07:50:09Z</time>
      </trkpt>
      <trkpt lat="43.72133" lon="1.70568">
        <ele>223.16</ele>
        <time>2017-09-03T07:50:28Z</time>
      </trkpt>
      <trkpt lat="43.72134" lon="1.70568">
        <ele>224.61</ele>
        <time>2017-09-03T07:50:30Z</time>
      </trkpt>
      <trkpt lat="43.72133" lon="1.70567">
        <ele>224.61</ele>
        <time>2017-09-03T07:50:51Z</time>
      </trkpt>
      <trkpt lat="43.72133" lon="1.70568">
        <ele>223.64</ele>
        <time>2017-09-03T07:51:12Z</time>
      </trkpt>
      <trkpt lat="43.72125" lon="1.70569">
        <ele>223.64</ele>
        <time>2017-09-03T07:51:27Z</time>
      </trkpt>
      <trkpt lat="43.72106" lon="1.70575">
        <ele>225.09</ele>
        <time>2017-09-03T07:51:45Z</time>
      </trkpt>
      <trkpt lat="43.72105" lon="1.70575">
        <ele>225.09</ele>
        <time>2017-09-03T07:51:46Z</time>
      </trkpt>
      <trkpt lat="43.72087" lon="1.70581">
        <ele>225.57</ele>
        <time>2017-09-03T07:52:04Z</time>
      </trkpt>
      <trkpt lat="43.72066" lon="1.70587">
        <ele>226.53</ele>
        <time>2017-09-03T07:52:24Z</time>
      </trkpt>
      <trkpt lat="43.72043" lon="1.70594">
        <ele>228.45</ele>
        <time>2017-09-03T07:52:45Z</time>
      </trkpt>
      <trkpt lat="43.72025" lon="1.70599">
        <ele>229.41</ele>
        <time>2017-09-03T07:53:02Z</time>
      </trkpt>
      <trkpt lat="43.72004" lon="1.70603">
        <ele>229.41</ele>
        <time>2017-09-03T07:53:21Z</time>
      </trkpt>
      <trkpt lat="43.71982" lon="1.70608">
        <ele>230.37</ele>
        <time>2017-09-03T07:53:42Z</time>
      </trkpt>
      <trkpt lat="43.71962" lon="1.70612">
        <ele>230.37</ele>
        <time>2017-09-03T07:54:00Z</time>
      </trkpt>
      <trkpt lat="43.71939" lon="1.70615">
        <ele>230.37</ele>
        <time>2017-09-03T07:54:20Z</time>
      </trkpt>
      <trkpt lat="43.71916" lon="1.70619">
        <ele>230.37</ele>
        <time>2017-09-03T07:54:40Z</time>
      </trkpt>
      <trkpt lat="43.71888" lon="1.70622">
        <ele>228.93</ele>
        <time>2017-09-03T07:55:04Z</time>
      </trkpt>
      <trkpt lat="43.71866" lon="1.70625">
        <ele>228.93</ele>
        <time>2017-09-03T07:55:23Z</time>
      </trkpt>
      <trkpt lat="43.71847" lon="1.7063">
        <ele>228.93</ele>
        <time>2017-09-03T07:55:39Z</time>
      </trkpt>
      <trkpt lat="43.71842" lon="1.70632">
        <ele>228.93</ele>
        <time>2017-09-03T07:55:44Z</time>
      </trkpt>
      <trkpt lat="43.71835" lon="1.70634">
        <ele>228.93</ele>
        <time>2017-09-03T07:56:00Z</time>
      </trkpt>
      <trkpt lat="43.71835" lon="1.70634">
        <ele>228.45</ele>
        <time>2017-09-03T07:56:19Z</time>
      </trkpt>
      <trkpt lat="43.71835" lon="1.70636">
        <ele>228.45</ele>
        <time>2017-09-03T07:56:47Z</time>
      </trkpt>
      <trkpt lat="43.71835" lon="1.70635">
        <ele>229.89</ele>
        <time>2017-09-03T07:56:56Z</time>
      </trkpt>
      <trkpt lat="43.71834" lon="1.70636">
        <ele>228.93</ele>
        <time>2017-09-03T07:57:21Z</time>
      </trkpt>
      <trkpt lat="43.71832" lon="1.70637">
        <ele>228.93</ele>
        <time>2017-09-03T07:57:43Z</time>
      </trkpt>
      <trkpt lat="43.71814" lon="1.70643">
        <ele>228.93</ele>
        <time>2017-09-03T07:58:02Z</time>
      </trkpt>
      <trkpt lat="43.71798" lon="1.70651">
        <ele>229.89</ele>
        <time>2017-09-03T07:58:21Z</time>
      </trkpt>
      <trkpt lat="43.71778" lon="1.7066">
        <ele>229.89</ele>
        <time>2017-09-03T07:58:42Z</time>
      </trkpt>
      <trkpt lat="43.71759" lon="1.70668">
        <ele>229.89</ele>
        <time>2017-09-03T07:59:00Z</time>
      </trkpt>
      <trkpt lat="43.71736" lon="1.70679">
        <ele>228.93</ele>
        <time>2017-09-03T07:59:21Z</time>
      </trkpt>
      <trkpt lat="43.71708" lon="1.70683">
        <ele>227.97</ele>
        <time>2017-09-03T07:59:46Z</time>
      </trkpt>
      <trkpt lat="43.71688" lon="1.70683">
        <ele>227.49</ele>
        <time>2017-09-03T08:00:04Z</time>
      </trkpt>
      <trkpt lat="43.71668" lon="1.70676">
        <ele>226.53</ele>
        <time>2017-09-03T08:00:23Z</time>
      </trkpt>
      <trkpt lat="43.71641" lon="1.70664">
        <ele>225.09</ele>
        <time>2017-09-03T08:00:48Z</time>
      </trkpt>
      <trkpt lat="43.71615" lon="1.70654">
        <ele>223.64</ele>
        <time>2017-09-03T08:01:10Z</time>
      </trkpt>
      <trkpt lat="43.71591" lon="1.70639">
        <ele>221.72</ele>
        <time>2017-09-03T08:01:32Z</time>
      </trkpt>
      <trkpt lat="43.71573" lon="1.70627">
        <ele>220.76</ele>
        <time>2017-09-03T08:01:49Z</time>
      </trkpt>
      <trkpt lat="43.71544" lon="1.7061">
        <ele>219.32</ele>
        <time>2017-09-03T08:02:13Z</time>
      </trkpt>
      <trkpt lat="43.71521" lon="1.70595">
        <ele>218.84</ele>
        <time>2017-09-03T08:02:35Z</time>
      </trkpt>
      <trkpt lat="43.71492" lon="1.70578">
        <ele>218.84</ele>
        <time>2017-09-03T08:03:01Z</time>
      </trkpt>
      <trkpt lat="43.71477" lon="1.7057">
        <ele>218.84</ele>
        <time>2017-09-03T08:03:15Z</time>
      </trkpt>
      <trkpt lat="43.71453" lon="1.70554">
        <ele>218.36</ele>
        <time>2017-09-03T08:03:38Z</time>
      </trkpt>
      <trkpt lat="43.7144" lon="1.70583">
        <ele>216.91</ele>
        <time>2017-09-03T08:04:01Z</time>
      </trkpt>
      <trkpt lat="43.71428" lon="1.70616">
        <ele>215.47</ele>
        <time>2017-09-03T08:04:24Z</time>
      </trkpt>
      <trkpt lat="43.71418" lon="1.7064">
        <ele>214.03</ele>
        <time>2017-09-03T08:04:43Z</time>
      </trkpt>
      <trkpt lat="43.71412" lon="1.70656">
        <ele>212.59</ele>
        <time>2017-09-03T08:04:54Z</time>
      </trkpt>
      <trkpt lat="43.71402" lon="1.70682">
        <ele>210.67</ele>
        <time>2017-09-03T08:05:11Z</time>
      </trkpt>
      <trkpt lat="43.71392" lon="1.70714">
        <ele>208.26</ele>
        <time>2017-09-03T08:05:32Z</time>
      </trkpt>
      <trkpt lat="43.71379" lon="1.70744">
        <ele>206.34</ele>
        <time>2017-09-03T08:05:56Z</time>
      </trkpt>
      <trkpt lat="43.7137" lon="1.70774">
        <ele>202.98</ele>
        <time>2017-09-03T08:06:16Z</time>
      </trkpt>
      <trkpt lat="43.71364" lon="1.70803">
        <ele>200.57</ele>
        <time>2017-09-03T08:06:35Z</time>
      </trkpt>
      <trkpt lat="43.7136" lon="1.70834">
        <ele>198.65</ele>
        <time>2017-09-03T08:06:56Z</time>
      </trkpt>
      <trkpt lat="43.71357" lon="1.7087">
        <ele>196.25</ele>
        <time>2017-09-03T08:07:17Z</time>
      </trkpt>
      <trkpt lat="43.71353" lon="1.70901">
        <ele>194.32</ele>
        <time>2017-09-03T08:07:36Z</time>
      </trkpt>
      <trkpt lat="43.7135" lon="1.70929">
        <ele>193.36</ele>
        <time>2017-09-03T08:07:54Z</time>
      </trkpt>
      <trkpt lat="43.71345" lon="1.70957">
        <ele>192.4</ele>
        <time>2017-09-03T08:08:11Z</time>
      </trkpt>
      <trkpt lat="43.71341" lon="1.70983">
        <ele>191.44</ele>
        <time>2017-09-03T08:08:28Z</time>
      </trkpt>
      <trkpt lat="43.71338" lon="1.71011">
        <ele>190</ele>
        <time>2017-09-03T08:08:46Z</time>
      </trkpt>
      <trkpt lat="43.71337" lon="1.71045">
        <ele>189.52</ele>
        <time>2017-09-03T08:09:06Z</time>
      </trkpt>
      <trkpt lat="43.7133" lon="1.71058">
        <ele>188.08</ele>
        <time>2017-09-03T08:09:25Z</time>
      </trkpt>
      <trkpt lat="43.71312" lon="1.71056">
        <ele>190</ele>
        <time>2017-09-03T08:09:46Z</time>
      </trkpt>
      <trkpt lat="43.71303" lon="1.71072">
        <ele>190.48</ele>
        <time>2017-09-03T08:10:04Z</time>
      </trkpt>
      <trkpt lat="43.71302" lon="1.71077">
        <ele>189.52</ele>
        <time>2017-09-03T08:10:08Z</time>
      </trkpt>
      <trkpt lat="43.71309" lon="1.71102">
        <ele>186.63</ele>
        <time>2017-09-03T08:10:25Z</time>
      </trkpt>
      <trkpt lat="43.71309" lon="1.71123">
        <ele>185.67</ele>
        <time>2017-09-03T08:10:47Z</time>
      </trkpt>
      <trkpt lat="43.71305" lon="1.7113">
        <ele>185.19</ele>
        <time>2017-09-03T08:11:11Z</time>
      </trkpt>
      <trkpt lat="43.71307" lon="1.71121">
        <ele>185.19</ele>
        <time>2017-09-03T08:11:34Z</time>
      </trkpt>
      <trkpt lat="43.7131" lon="1.71117">
        <ele>185.19</ele>
        <time>2017-09-03T08:11:58Z</time>
      </trkpt>
      <trkpt lat="43.71311" lon="1.71109">
        <ele>186.15</ele>
        <time>2017-09-03T08:12:21Z</time>
      </trkpt>
      <trkpt lat="43.7131" lon="1.71127">
        <ele>186.15</ele>
        <time>2017-09-03T08:12:43Z</time>
      </trkpt>
      <trkpt lat="43.71302" lon="1.71139">
        <ele>186.15</ele>
        <time>2017-09-03T08:13:09Z</time>
      </trkpt>
      <trkpt lat="43.71307" lon="1.71142">
        <ele>186.15</ele>
        <time>2017-09-03T08:13:29Z</time>
      </trkpt>
      <trkpt lat="43.71304" lon="1.71147">
        <ele>185.19</ele>
        <time>2017-09-03T08:13:45Z</time>
      </trkpt>
      <trkpt lat="43.713" lon="1.71149">
        <ele>185.19</ele>
        <time>2017-09-03T08:14:08Z</time>
      </trkpt>
      <trkpt lat="43.71306" lon="1.71151">
        <ele>185.19</ele>
        <time>2017-09-03T08:14:27Z</time>
      </trkpt>
      <trkpt lat="43.71301" lon="1.71153">
        <ele>184.71</ele>
        <time>2017-09-03T08:14:45Z</time>
      </trkpt>
      <trkpt lat="43.71299" lon="1.71155">
        <ele>184.71</ele>
        <time>2017-09-03T08:15:03Z</time>
      </trkpt>
      <trkpt lat="43.71296" lon="1.71168">
        <ele>184.23</ele>
        <time>2017-09-03T08:15:19Z</time>
      </trkpt>
      <trkpt lat="43.71288" lon="1.71184">
        <ele>183.27</ele>
        <time>2017-09-03T08:15:36Z</time>
      </trkpt>
      <trkpt lat="43.71287" lon="1.71203">
        <ele>182.31</ele>
        <time>2017-09-03T08:15:54Z</time>
      </trkpt>
      <trkpt lat="43.71281" lon="1.7122">
        <ele>180.87</ele>
        <time>2017-09-03T08:16:11Z</time>
      </trkpt>
      <trkpt lat="43.7127" lon="1.71238">
        <ele>180.38</ele>
        <time>2017-09-03T08:16:28Z</time>
      </trkpt>
      <trkpt lat="43.71262" lon="1.71248">
        <ele>179.42</ele>
        <time>2017-09-03T08:16:40Z</time>
      </trkpt>
      <trkpt lat="43.71254" lon="1.71257">
        <ele>178.46</ele>
        <time>2017-09-03T08:17:00Z</time>
      </trkpt>
      <trkpt lat="43.71248" lon="1.71267">
        <ele>177.98</ele>
        <time>2017-09-03T08:17:17Z</time>
      </trkpt>
      <trkpt lat="43.71247" lon="1.71273">
        <ele>177.02</ele>
        <time>2017-09-03T08:17:31Z</time>
      </trkpt>
      <trkpt lat="43.71236" lon="1.71293">
        <ele>176.54</ele>
        <time>2017-09-03T08:17:48Z</time>
      </trkpt>
      <trkpt lat="43.71229" lon="1.71304">
        <ele>176.06</ele>
        <time>2017-09-03T08:18:03Z</time>
      </trkpt>
      <trkpt lat="43.71218" lon="1.71319">
        <ele>174.62</ele>
        <time>2017-09-03T08:18:17Z</time>
      </trkpt>
      <trkpt lat="43.71206" lon="1.71337">
        <ele>174.62</ele>
        <time>2017-09-03T08:18:34Z</time>
      </trkpt>
      <trkpt lat="43.71195" lon="1.71355">
        <ele>173.17</ele>
        <time>2017-09-03T08:18:50Z</time>
      </trkpt>
      <trkpt lat="43.7119" lon="1.71369">
        <ele>173.17</ele>
        <time>2017-09-03T08:19:03Z</time>
      </trkpt>
      <trkpt lat="43.71189" lon="1.71377">
        <ele>172.69</ele>
        <time>2017-09-03T08:19:21Z</time>
      </trkpt>
      <trkpt lat="43.71186" lon="1.71386">
        <ele>172.21</ele>
        <time>2017-09-03T08:19:40Z</time>
      </trkpt>
      <trkpt lat="43.71188" lon="1.71389">
        <ele>171.73</ele>
        <time>2017-09-03T08:19:52Z</time>
      </trkpt>
      <trkpt lat="43.71184" lon="1.71396">
        <ele>171.73</ele>
        <time>2017-09-03T08:20:04Z</time>
      </trkpt>
      <trkpt lat="43.71188" lon="1.71414">
        <ele>171.73</ele>
        <time>2017-09-03T08:20:19Z</time>
      </trkpt>
      <trkpt lat="43.71192" lon="1.7143">
        <ele>171.73</ele>
        <time>2017-09-03T08:20:29Z</time>
      </trkpt>
      <trkpt lat="43.71196" lon="1.71462">
        <ele>171.73</ele>
        <time>2017-09-03T08:20:46Z</time>
      </trkpt>
      <trkpt lat="43.71194" lon="1.71489">
        <ele>171.73</ele>
        <time>2017-09-03T08:21:02Z</time>
      </trkpt>
      <trkpt lat="43.71183" lon="1.7151">
        <ele>171.73</ele>
        <time>2017-09-03T08:21:21Z</time>
      </trkpt>
      <trkpt lat="43.7118" lon="1.71523">
        <ele>172.69</ele>
        <time>2017-09-03T08:21:36Z</time>
      </trkpt>
      <trkpt lat="43.71183" lon="1.71523">
        <ele>172.69</ele>
        <time>2017-09-03T08:21:39Z</time>
      </trkpt>
      <trkpt lat="43.71189" lon="1.71522">
        <ele>171.73</ele>
        <time>2017-09-03T08:21:55Z</time>
      </trkpt>
      <trkpt lat="43.71197" lon="1.71518">
        <ele>170.29</ele>
        <time>2017-09-03T08:22:04Z</time>
      </trkpt>
      <trkpt lat="43.71199" lon="1.71517">
        <ele>172.69</ele>
        <time>2017-09-03T08:22:06Z</time>
      </trkpt>
      <trkpt lat="43.71203" lon="1.71516">
        <ele>171.25</ele>
        <time>2017-09-03T08:22:10Z</time>
      </trkpt>
      <trkpt lat="43.71222" lon="1.71531">
        <ele>170.29</ele>
        <time>2017-09-03T08:22:31Z</time>
      </trkpt>
      <trkpt lat="43.71223" lon="1.71532">
        <ele>170.29</ele>
        <time>2017-09-03T08:22:32Z</time>
      </trkpt>
      <trkpt lat="43.7123" lon="1.71538">
        <ele>170.29</ele>
        <time>2017-09-03T08:22:45Z</time>
      </trkpt>
      <trkpt lat="43.71247" lon="1.71565">
        <ele>170.29</ele>
        <time>2017-09-03T08:23:06Z</time>
      </trkpt>
      <trkpt lat="43.71256" lon="1.7159">
        <ele>169.81</ele>
        <time>2017-09-03T08:23:23Z</time>
      </trkpt>
      <trkpt lat="43.71258" lon="1.71617">
        <ele>169.81</ele>
        <time>2017-09-03T08:23:42Z</time>
      </trkpt>
      <trkpt lat="43.71256" lon="1.7162">
        <ele>171.25</ele>
        <time>2017-09-03T08:23:51Z</time>
      </trkpt>
      <trkpt lat="43.71257" lon="1.71621">
        <ele>169.81</ele>
        <time>2017-09-03T08:23:57Z</time>
      </trkpt>
      <trkpt lat="43.71258" lon="1.71621">
        <ele>169.81</ele>
        <time>2017-09-03T08:24:18Z</time>
      </trkpt>
      <trkpt lat="43.71259" lon="1.71622">
        <ele>169.81</ele>
        <time>2017-09-03T08:24:49Z</time>
      </trkpt>
      <trkpt lat="43.71258" lon="1.71619">
        <ele>169.81</ele>
        <time>2017-09-03T08:25:07Z</time>
      </trkpt>
      <trkpt lat="43.7125" lon="1.71622">
        <ele>169.81</ele>
        <time>2017-09-03T08:25:36Z</time>
      </trkpt>
      <trkpt lat="43.71246" lon="1.71622">
        <ele>171.25</ele>
        <time>2017-09-03T08:25:39Z</time>
      </trkpt>
      <trkpt lat="43.71229" lon="1.71618">
        <ele>173.66</ele>
        <time>2017-09-03T08:25:57Z</time>
      </trkpt>
      <trkpt lat="43.71216" lon="1.71617">
        <ele>177.02</ele>
        <time>2017-09-03T08:26:13Z</time>
      </trkpt>
      <trkpt lat="43.712" lon="1.71623">
        <ele>179.42</ele>
        <time>2017-09-03T08:26:31Z</time>
      </trkpt>
      <trkpt lat="43.71196" lon="1.71642">
        <ele>181.83</ele>
        <time>2017-09-03T08:26:47Z</time>
      </trkpt>
      <trkpt lat="43.71197" lon="1.71661">
        <ele>184.23</ele>
        <time>2017-09-03T08:27:04Z</time>
      </trkpt>
      <trkpt lat="43.71197" lon="1.71683">
        <ele>185.67</ele>
        <time>2017-09-03T08:27:20Z</time>
      </trkpt>
      <trkpt lat="43.71192" lon="1.71703">
        <ele>187.59</ele>
        <time>2017-09-03T08:27:36Z</time>
      </trkpt>
      <trkpt lat="43.71178" lon="1.71725">
        <ele>190</ele>
        <time>2017-09-03T08:27:57Z</time>
      </trkpt>
      <trkpt lat="43.71174" lon="1.71731">
        <ele>190.96</ele>
        <time>2017-09-03T08:28:04Z</time>
      </trkpt>
      <trkpt lat="43.71162" lon="1.71759">
        <ele>192.4</ele>
        <time>2017-09-03T08:28:25Z</time>
      </trkpt>
      <trkpt lat="43.71151" lon="1.71783">
        <ele>193.84</ele>
        <time>2017-09-03T08:28:44Z</time>
      </trkpt>
      <trkpt lat="43.71139" lon="1.7181">
        <ele>195.28</ele>
        <time>2017-09-03T08:29:05Z</time>
      </trkpt>
      <trkpt lat="43.71128" lon="1.71836">
        <ele>197.21</ele>
        <time>2017-09-03T08:29:25Z</time>
      </trkpt>
      <trkpt lat="43.71117" lon="1.7186">
        <ele>198.17</ele>
        <time>2017-09-03T08:29:43Z</time>
      </trkpt>
      <trkpt lat="43.71104" lon="1.71887">
        <ele>200.09</ele>
        <time>2017-09-03T08:30:04Z</time>
      </trkpt>
      <trkpt lat="43.71092" lon="1.71913">
        <ele>201.05</ele>
        <time>2017-09-03T08:30:24Z</time>
      </trkpt>
      <trkpt lat="43.71079" lon="1.71943">
        <ele>201.53</ele>
        <time>2017-09-03T08:30:46Z</time>
      </trkpt>
      <trkpt lat="43.71065" lon="1.71969">
        <ele>202.49</ele>
        <time>2017-09-03T08:31:06Z</time>
      </trkpt>
      <trkpt lat="43.71053" lon="1.71997">
        <ele>204.42</ele>
        <time>2017-09-03T08:31:27Z</time>
      </trkpt>
      <trkpt lat="43.7105" lon="1.72007">
        <ele>204.42</ele>
        <time>2017-09-03T08:31:45Z</time>
      </trkpt>
      <trkpt lat="43.7105" lon="1.72005">
        <ele>204.9</ele>
        <time>2017-09-03T08:32:07Z</time>
      </trkpt>
      <trkpt lat="43.71049" lon="1.72003">
        <ele>205.38</ele>
        <time>2017-09-03T08:32:29Z</time>
      </trkpt>
      <trkpt lat="43.71049" lon="1.72004">
        <ele>203.94</ele>
        <time>2017-09-03T08:32:45Z</time>
      </trkpt>
      <trkpt lat="43.71052" lon="1.72009">
        <ele>204.42</ele>
        <time>2017-09-03T08:33:14Z</time>
      </trkpt>
      <trkpt lat="43.71051" lon="1.72008">
        <ele>205.38</ele>
        <time>2017-09-03T08:33:31Z</time>
      </trkpt>
      <trkpt lat="43.71043" lon="1.72027">
        <ele>205.86</ele>
        <time>2017-09-03T08:33:48Z</time>
      </trkpt>
      <trkpt lat="43.71036" lon="1.72056">
        <ele>205.86</ele>
        <time>2017-09-03T08:34:07Z</time>
      </trkpt>
      <trkpt lat="43.71038" lon="1.72065">
        <ele>205.86</ele>
        <time>2017-09-03T08:34:14Z</time>
      </trkpt>
      <trkpt lat="43.71039" lon="1.7208">
        <ele>204.9</ele>
        <time>2017-09-03T08:34:23Z</time>
      </trkpt>
      <trkpt lat="43.71042" lon="1.72106">
        <ele>204.9</ele>
        <time>2017-09-03T08:34:40Z</time>
      </trkpt>
      <trkpt lat="43.71044" lon="1.72135">
        <ele>204.42</ele>
        <time>2017-09-03T08:34:56Z</time>
      </trkpt>
      <trkpt lat="43.71048" lon="1.72161">
        <ele>204.42</ele>
        <time>2017-09-03T08:35:12Z</time>
      </trkpt>
      <trkpt lat="43.71054" lon="1.72189">
        <ele>204.42</ele>
        <time>2017-09-03T08:35:31Z</time>
      </trkpt>
      <trkpt lat="43.71059" lon="1.72214">
        <ele>204.42</ele>
        <time>2017-09-03T08:35:47Z</time>
      </trkpt>
      <trkpt lat="43.71061" lon="1.72219">
        <ele>204.42</ele>
        <time>2017-09-03T08:35:50Z</time>
      </trkpt>
      <trkpt lat="43.71067" lon="1.7224">
        <ele>203.46</ele>
        <time>2017-09-03T08:36:04Z</time>
      </trkpt>
      <trkpt lat="43.71086" lon="1.72265">
        <ele>203.46</ele>
        <time>2017-09-03T08:36:21Z</time>
      </trkpt>
      <trkpt lat="43.71101" lon="1.72282">
        <ele>203.46</ele>
        <time>2017-09-03T08:36:38Z</time>
      </trkpt>
      <trkpt lat="43.71123" lon="1.72301">
        <ele>202.98</ele>
        <time>2017-09-03T08:36:57Z</time>
      </trkpt>
      <trkpt lat="43.71141" lon="1.72318">
        <ele>202.98</ele>
        <time>2017-09-03T08:37:16Z</time>
      </trkpt>
      <trkpt lat="43.71161" lon="1.72334">
        <ele>202.49</ele>
        <time>2017-09-03T08:37:35Z</time>
      </trkpt>
      <trkpt lat="43.71185" lon="1.72354">
        <ele>201.05</ele>
        <time>2017-09-03T08:37:57Z</time>
      </trkpt>
      <trkpt lat="43.71202" lon="1.72367">
        <ele>200.09</ele>
        <time>2017-09-03T08:38:11Z</time>
      </trkpt>
      <trkpt lat="43.71224" lon="1.72385">
        <ele>199.61</ele>
        <time>2017-09-03T08:38:31Z</time>
      </trkpt>
      <trkpt lat="43.71241" lon="1.72402">
        <ele>198.65</ele>
        <time>2017-09-03T08:38:49Z</time>
      </trkpt>
      <trkpt lat="43.71259" lon="1.72417">
        <ele>198.17</ele>
        <time>2017-09-03T08:39:07Z</time>
      </trkpt>
      <trkpt lat="43.71269" lon="1.72427">
        <ele>197.69</ele>
        <time>2017-09-03T08:39:22Z</time>
      </trkpt>
      <trkpt lat="43.71281" lon="1.72425">
        <ele>196.73</ele>
        <time>2017-09-03T08:39:38Z</time>
      </trkpt>
      <trkpt lat="43.71292" lon="1.72412">
        <ele>192.4</ele>
        <time>2017-09-03T08:39:54Z</time>
      </trkpt>
      <trkpt lat="43.71293" lon="1.72412">
        <ele>192.4</ele>
        <time>2017-09-03T08:39:55Z</time>
      </trkpt>
      <trkpt lat="43.71301" lon="1.72403">
        <ele>190.48</ele>
        <time>2017-09-03T08:40:06Z</time>
      </trkpt>
      <trkpt lat="43.71304" lon="1.72399">
        <ele>189.52</ele>
        <time>2017-09-03T08:40:10Z</time>
      </trkpt>
      <trkpt lat="43.71311" lon="1.72391">
        <ele>187.11</ele>
        <time>2017-09-03T08:40:18Z</time>
      </trkpt>
      <trkpt lat="43.71324" lon="1.72373">
        <ele>184.71</ele>
        <time>2017-09-03T08:40:35Z</time>
      </trkpt>
      <trkpt lat="43.71341" lon="1.72354">
        <ele>181.83</ele>
        <time>2017-09-03T08:40:53Z</time>
      </trkpt>
      <trkpt lat="43.71356" lon="1.72333">
        <ele>179.9</ele>
        <time>2017-09-03T08:41:11Z</time>
      </trkpt>
      <trkpt lat="43.71371" lon="1.72312">
        <ele>178.46</ele>
        <time>2017-09-03T08:41:29Z</time>
      </trkpt>
      <trkpt lat="43.71383" lon="1.72296">
        <ele>177.02</ele>
        <time>2017-09-03T08:41:42Z</time>
      </trkpt>
      <trkpt lat="43.71398" lon="1.72276">
        <ele>175.1</ele>
        <time>2017-09-03T08:42:00Z</time>
      </trkpt>
      <trkpt lat="43.71413" lon="1.72254">
        <ele>172.69</ele>
        <time>2017-09-03T08:42:19Z</time>
      </trkpt>
      <trkpt lat="43.71425" lon="1.72236">
        <ele>171.73</ele>
        <time>2017-09-03T08:42:33Z</time>
      </trkpt>
      <trkpt lat="43.71436" lon="1.72222">
        <ele>168.37</ele>
        <time>2017-09-03T08:42:48Z</time>
      </trkpt>
      <trkpt lat="43.7145" lon="1.72204">
        <ele>165.48</ele>
        <time>2017-09-03T08:43:04Z</time>
      </trkpt>
      <trkpt lat="43.71454" lon="1.722">
        <ele>164.52</ele>
        <time>2017-09-03T08:43:08Z</time>
      </trkpt>
      <trkpt lat="43.71456" lon="1.722">
        <ele>164.52</ele>
        <time>2017-09-03T08:43:10Z</time>
      </trkpt>
      <trkpt lat="43.71459" lon="1.72228">
        <ele>164.04</ele>
        <time>2017-09-03T08:43:28Z</time>
      </trkpt>
      <trkpt lat="43.71463" lon="1.72245">
        <ele>164.04</ele>
        <time>2017-09-03T08:43:44Z</time>
      </trkpt>
      <trkpt lat="43.71464" lon="1.72265">
        <ele>164.04</ele>
        <time>2017-09-03T08:44:00Z</time>
      </trkpt>
      <trkpt lat="43.71463" lon="1.72266">
        <ele>165.48</ele>
        <time>2017-09-03T08:44:02Z</time>
      </trkpt>
      <trkpt lat="43.71465" lon="1.72289">
        <ele>165.48</ele>
        <time>2017-09-03T08:44:17Z</time>
      </trkpt>
      <trkpt lat="43.71466" lon="1.72294">
        <ele>165.48</ele>
        <time>2017-09-03T08:44:20Z</time>
      </trkpt>
      <trkpt lat="43.71469" lon="1.72299">
        <ele>165.48</ele>
        <time>2017-09-03T08:44:24Z</time>
      </trkpt>
      <trkpt lat="43.71473" lon="1.72323">
        <ele>165.48</ele>
        <time>2017-09-03T08:44:39Z</time>
      </trkpt>
      <trkpt lat="43.71476" lon="1.72339">
        <ele>165.48</ele>
        <time>2017-09-03T08:44:50Z</time>
      </trkpt>
      <trkpt lat="43.71478" lon="1.72342">
        <ele>165.48</ele>
        <time>2017-09-03T08:44:53Z</time>
      </trkpt>
      <trkpt lat="43.7148" lon="1.72346">
        <ele>163.56</ele>
        <time>2017-09-03T08:44:56Z</time>
      </trkpt>
      <trkpt lat="43.71488" lon="1.72371">
        <ele>163.56</ele>
        <time>2017-09-03T08:45:14Z</time>
      </trkpt>
      <trkpt lat="43.71492" lon="1.72379">
        <ele>163.56</ele>
        <time>2017-09-03T08:45:20Z</time>
      </trkpt>
      <trkpt lat="43.71506" lon="1.72399">
        <ele>165</ele>
        <time>2017-09-03T08:45:37Z</time>
      </trkpt>
      <trkpt lat="43.71511" lon="1.72415">
        <ele>167.89</ele>
        <time>2017-09-03T08:45:51Z</time>
      </trkpt>
      <trkpt lat="43.71516" lon="1.72436">
        <ele>171.25</ele>
        <time>2017-09-03T08:46:09Z</time>
      </trkpt>
      <trkpt lat="43.71524" lon="1.72452">
        <ele>173.66</ele>
        <time>2017-09-03T08:46:27Z</time>
      </trkpt>
      <trkpt lat="43.7153" lon="1.7247">
        <ele>175.58</ele>
        <time>2017-09-03T08:46:43Z</time>
      </trkpt>
      <trkpt lat="43.71532" lon="1.72474">
        <ele>175.58</ele>
        <time>2017-09-03T08:46:47Z</time>
      </trkpt>
      <trkpt lat="43.71541" lon="1.72488">
        <ele>176.54</ele>
        <time>2017-09-03T08:47:01Z</time>
      </trkpt>
      <trkpt lat="43.71551" lon="1.72506">
        <ele>175.1</ele>
        <time>2017-09-03T08:47:16Z</time>
      </trkpt>
      <trkpt lat="43.71554" lon="1.72513">
        <ele>174.62</ele>
        <time>2017-09-03T08:47:22Z</time>
      </trkpt>
      <trkpt lat="43.71564" lon="1.7253">
        <ele>171.25</ele>
        <time>2017-09-03T08:47:37Z</time>
      </trkpt>
      <trkpt lat="43.71568" lon="1.72529">
        <ele>169.81</ele>
        <time>2017-09-03T08:47:42Z</time>
      </trkpt>
      <trkpt lat="43.71579" lon="1.7253">
        <ele>166.93</ele>
        <time>2017-09-03T08:47:59Z</time>
      </trkpt>
      <trkpt lat="43.7159" lon="1.72528">
        <ele>164.04</ele>
        <time>2017-09-03T08:48:10Z</time>
      </trkpt>
      <trkpt lat="43.71591" lon="1.72528">
        <ele>164.04</ele>
        <time>2017-09-03T08:48:11Z</time>
      </trkpt>
      <trkpt lat="43.71601" lon="1.72528">
        <ele>161.16</ele>
        <time>2017-09-03T08:48:19Z</time>
      </trkpt>
      <trkpt lat="43.71604" lon="1.72527">
        <ele>160.2</ele>
        <time>2017-09-03T08:48:22Z</time>
      </trkpt>
      <trkpt lat="43.71621" lon="1.72522">
        <ele>157.31</ele>
        <time>2017-09-03T08:48:39Z</time>
      </trkpt>
      <trkpt lat="43.71641" lon="1.72537">
        <ele>156.83</ele>
        <time>2017-09-03T08:48:55Z</time>
      </trkpt>
      <trkpt lat="43.71656" lon="1.72558">
        <ele>156.35</ele>
        <time>2017-09-03T08:49:10Z</time>
      </trkpt>
      <trkpt lat="43.71671" lon="1.72582">
        <ele>156.35</ele>
        <time>2017-09-03T08:49:28Z</time>
      </trkpt>
      <trkpt lat="43.71672" lon="1.72585">
        <ele>156.35</ele>
        <time>2017-09-03T08:49:30Z</time>
      </trkpt>
      <trkpt lat="43.71674" lon="1.72587">
        <ele>156.35</ele>
        <time>2017-09-03T08:49:32Z</time>
      </trkpt>
      <trkpt lat="43.71679" lon="1.72596">
        <ele>156.35</ele>
        <time>2017-09-03T08:49:38Z</time>
      </trkpt>
      <trkpt lat="43.71694" lon="1.72624">
        <ele>154.91</ele>
        <time>2017-09-03T08:49:59Z</time>
      </trkpt>
      <trkpt lat="43.71705" lon="1.72641">
        <ele>154.43</ele>
        <time>2017-09-03T08:50:12Z</time>
      </trkpt>
      <trkpt lat="43.71705" lon="1.72642">
        <ele>154.43</ele>
        <time>2017-09-03T08:50:13Z</time>
      </trkpt>
      <trkpt lat="43.71713" lon="1.72657">
        <ele>154.91</ele>
        <time>2017-09-03T08:50:23Z</time>
      </trkpt>
      <trkpt lat="43.71731" lon="1.72685">
        <ele>153.95</ele>
        <time>2017-09-03T08:50:44Z</time>
      </trkpt>
      <trkpt lat="43.71747" lon="1.72713">
        <ele>153.47</ele>
        <time>2017-09-03T08:51:05Z</time>
      </trkpt>
      <trkpt lat="43.71753" lon="1.72725">
        <ele>153.95</ele>
        <time>2017-09-03T08:51:15Z</time>
      </trkpt>
      <trkpt lat="43.71762" lon="1.72737">
        <ele>152.03</ele>
        <time>2017-09-03T08:51:30Z</time>
      </trkpt>
      <trkpt lat="43.71762" lon="1.72743">
        <ele>152.03</ele>
        <time>2017-09-03T08:51:34Z</time>
      </trkpt>
      <trkpt lat="43.71769" lon="1.72775">
        <ele>152.51</ele>
        <time>2017-09-03T08:51:54Z</time>
      </trkpt>
      <trkpt lat="43.71777" lon="1.72812">
        <ele>152.03</ele>
        <time>2017-09-03T08:52:16Z</time>
      </trkpt>
      <trkpt lat="43.71783" lon="1.72841">
        <ele>151.06</ele>
        <time>2017-09-03T08:52:34Z</time>
      </trkpt>
      <trkpt lat="43.7179" lon="1.72871">
        <ele>151.06</ele>
        <time>2017-09-03T08:52:52Z</time>
      </trkpt>
      <trkpt lat="43.71799" lon="1.72908">
        <ele>150.1</ele>
        <time>2017-09-03T08:53:15Z</time>
      </trkpt>
      <trkpt lat="43.71806" lon="1.72943">
        <ele>147.7</ele>
        <time>2017-09-03T08:53:36Z</time>
      </trkpt>
      <trkpt lat="43.71815" lon="1.72988">
        <ele>146.74</ele>
        <time>2017-09-03T08:54:00Z</time>
      </trkpt>
      <trkpt lat="43.71823" lon="1.73023">
        <ele>145.78</ele>
        <time>2017-09-03T08:54:22Z</time>
      </trkpt>
      <trkpt lat="43.71833" lon="1.73045">
        <ele>144.82</ele>
        <time>2017-09-03T08:54:40Z</time>
      </trkpt>
      <trkpt lat="43.71845" lon="1.73042">
        <ele>144.82</ele>
        <time>2017-09-03T08:54:49Z</time>
      </trkpt>
      <trkpt lat="43.71862" lon="1.73036">
        <ele>144.82</ele>
        <time>2017-09-03T08:55:04Z</time>
      </trkpt>
      <trkpt lat="43.71877" lon="1.73028">
        <ele>144.82</ele>
        <time>2017-09-03T08:55:19Z</time>
      </trkpt>
      <trkpt lat="43.71889" lon="1.73021">
        <ele>144.82</ele>
        <time>2017-09-03T08:55:33Z</time>
      </trkpt>
      <trkpt lat="43.7191" lon="1.73008">
        <ele>144.34</ele>
        <time>2017-09-03T08:55:50Z</time>
      </trkpt>
      <trkpt lat="43.71925" lon="1.72996">
        <ele>144.34</ele>
        <time>2017-09-03T08:56:02Z</time>
      </trkpt>
      <trkpt lat="43.71941" lon="1.72982">
        <ele>144.34</ele>
        <time>2017-09-03T08:56:15Z</time>
      </trkpt>
      <trkpt lat="43.71957" lon="1.72976">
        <ele>144.34</ele>
        <time>2017-09-03T08:56:29Z</time>
      </trkpt>
      <trkpt lat="43.71961" lon="1.72972">
        <ele>148.18</ele>
        <time>2017-09-03T08:56:45Z</time>
      </trkpt>
      <trkpt lat="43.71961" lon="1.72972">
        <ele>144.34</ele>
        <time>2017-09-03T08:56:46Z</time>
      </trkpt>
      <trkpt lat="43.71974" lon="1.72965">
        <ele>143.85</ele>
        <time>2017-09-03T08:57:00Z</time>
      </trkpt>
      <trkpt lat="43.71987" lon="1.72958">
        <ele>143.85</ele>
        <time>2017-09-03T08:57:12Z</time>
      </trkpt>
      <trkpt lat="43.71995" lon="1.72952">
        <ele>143.85</ele>
        <time>2017-09-03T08:57:19Z</time>
      </trkpt>
      <trkpt lat="43.72007" lon="1.72951">
        <ele>143.85</ele>
        <time>2017-09-03T08:57:34Z</time>
      </trkpt>
      <trkpt lat="43.72008" lon="1.72958">
        <ele>144.82</ele>
        <time>2017-09-03T08:57:56Z</time>
      </trkpt>
      <trkpt lat="43.72004" lon="1.72983">
        <ele>144.82</ele>
        <time>2017-09-03T08:58:13Z</time>
      </trkpt>
      <trkpt lat="43.72006" lon="1.72989">
        <ele>144.82</ele>
        <time>2017-09-03T08:58:19Z</time>
      </trkpt>
      <trkpt lat="43.72013" lon="1.72999">
        <ele>145.3</ele>
        <time>2017-09-03T08:58:30Z</time>
      </trkpt>
      <trkpt lat="43.72027" lon="1.72995">
        <ele>145.78</ele>
        <time>2017-09-03T08:58:44Z</time>
      </trkpt>
      <trkpt lat="43.72046" lon="1.72982">
        <ele>145.78</ele>
        <time>2017-09-03T08:59:00Z</time>
      </trkpt>
      <trkpt lat="43.72066" lon="1.72968">
        <ele>145.78</ele>
        <time>2017-09-03T08:59:18Z</time>
      </trkpt>
      <trkpt lat="43.72084" lon="1.72955">
        <ele>145.78</ele>
        <time>2017-09-03T08:59:34Z</time>
      </trkpt>
      <trkpt lat="43.72101" lon="1.72948">
        <ele>145.78</ele>
        <time>2017-09-03T08:59:50Z</time>
      </trkpt>
      <trkpt lat="43.72119" lon="1.72939">
        <ele>145.78</ele>
        <time>2017-09-03T09:00:05Z</time>
      </trkpt>
      <trkpt lat="43.72141" lon="1.72929">
        <ele>145.78</ele>
        <time>2017-09-03T09:00:23Z</time>
      </trkpt>
      <trkpt lat="43.72157" lon="1.72927">
        <ele>145.78</ele>
        <time>2017-09-03T09:00:38Z</time>
      </trkpt>
      <trkpt lat="43.72172" lon="1.72925">
        <ele>145.78</ele>
        <time>2017-09-03T09:00:50Z</time>
      </trkpt>
      <trkpt lat="43.72185" lon="1.72923">
        <ele>145.78</ele>
        <time>2017-09-03T09:01:02Z</time>
      </trkpt>
      <trkpt lat="43.72189" lon="1.72922">
        <ele>145.78</ele>
        <time>2017-09-03T09:01:05Z</time>
      </trkpt>
      <trkpt lat="43.72211" lon="1.72918">
        <ele>145.78</ele>
        <time>2017-09-03T09:01:21Z</time>
      </trkpt>
      <trkpt lat="43.72228" lon="1.72917">
        <ele>144.82</ele>
        <time>2017-09-03T09:01:35Z</time>
      </trkpt>
      <trkpt lat="43.72246" lon="1.72911">
        <ele>144.34</ele>
        <time>2017-09-03T09:01:49Z</time>
      </trkpt>
      <trkpt lat="43.72248" lon="1.72911">
        <ele>144.34</ele>
        <time>2017-09-03T09:01:51Z</time>
      </trkpt>
      <trkpt lat="43.72251" lon="1.72909">
        <ele>144.34</ele>
        <time>2017-09-03T09:01:55Z</time>
      </trkpt>
      <trkpt lat="43.72254" lon="1.72908">
        <ele>143.85</ele>
        <time>2017-09-03T09:01:57Z</time>
      </trkpt>
      <trkpt lat="43.72276" lon="1.72904">
        <ele>143.85</ele>
        <time>2017-09-03T09:02:15Z</time>
      </trkpt>
      <trkpt lat="43.7229" lon="1.72901">
        <ele>143.37</ele>
        <time>2017-09-03T09:02:27Z</time>
      </trkpt>
      <trkpt lat="43.72316" lon="1.72896">
        <ele>142.89</ele>
        <time>2017-09-03T09:02:43Z</time>
      </trkpt>
      <trkpt lat="43.72335" lon="1.72891">
        <ele>141.93</ele>
        <time>2017-09-03T09:02:58Z</time>
      </trkpt>
      <trkpt lat="43.72353" lon="1.72884">
        <ele>141.93</ele>
        <time>2017-09-03T09:03:14Z</time>
      </trkpt>
      <trkpt lat="43.72372" lon="1.72878">
        <ele>141.93</ele>
        <time>2017-09-03T09:03:29Z</time>
      </trkpt>
      <trkpt lat="43.72391" lon="1.72873">
        <ele>141.93</ele>
        <time>2017-09-03T09:03:46Z</time>
      </trkpt>
      <trkpt lat="43.72408" lon="1.72869">
        <ele>141.93</ele>
        <time>2017-09-03T09:04:01Z</time>
      </trkpt>
      <trkpt lat="43.72423" lon="1.72867">
        <ele>142.89</ele>
        <time>2017-09-03T09:04:17Z</time>
      </trkpt>
      <trkpt lat="43.72434" lon="1.72865">
        <ele>143.85</ele>
        <time>2017-09-03T09:04:25Z</time>
      </trkpt>
      <trkpt lat="43.72455" lon="1.72862">
        <ele>143.85</ele>
        <time>2017-09-03T09:04:41Z</time>
      </trkpt>
      <trkpt lat="43.72474" lon="1.72859">
        <ele>143.85</ele>
        <time>2017-09-03T09:04:57Z</time>
      </trkpt>
      <trkpt lat="43.72494" lon="1.72855">
        <ele>144.34</ele>
        <time>2017-09-03T09:05:13Z</time>
      </trkpt>
      <trkpt lat="43.72509" lon="1.7285">
        <ele>144.34</ele>
        <time>2017-09-03T09:05:27Z</time>
      </trkpt>
      <trkpt lat="43.72525" lon="1.72845">
        <ele>144.34</ele>
        <time>2017-09-03T09:05:42Z</time>
      </trkpt>
      <trkpt lat="43.72542" lon="1.72841">
        <ele>143.37</ele>
        <time>2017-09-03T09:05:57Z</time>
      </trkpt>
      <trkpt lat="43.72555" lon="1.72838">
        <ele>143.37</ele>
        <time>2017-09-03T09:06:10Z</time>
      </trkpt>
      <trkpt lat="43.72564" lon="1.72832">
        <ele>142.89</ele>
        <time>2017-09-03T09:06:27Z</time>
      </trkpt>
      <trkpt lat="43.72582" lon="1.72824">
        <ele>143.37</ele>
        <time>2017-09-03T09:06:43Z</time>
      </trkpt>
      <trkpt lat="43.72586" lon="1.72821">
        <ele>144.34</ele>
        <time>2017-09-03T09:06:48Z</time>
      </trkpt>
      <trkpt lat="43.72603" lon="1.72811">
        <ele>144.34</ele>
        <time>2017-09-03T09:07:06Z</time>
      </trkpt>
      <trkpt lat="43.72607" lon="1.7281">
        <ele>142.89</ele>
        <time>2017-09-03T09:07:10Z</time>
      </trkpt>
      <trkpt lat="43.72614" lon="1.72809">
        <ele>142.89</ele>
        <time>2017-09-03T09:07:14Z</time>
      </trkpt>
      <trkpt lat="43.72624" lon="1.72809">
        <ele>142.41</ele>
        <time>2017-09-03T09:07:22Z</time>
      </trkpt>
      <trkpt lat="43.72646" lon="1.72813">
        <ele>141.93</ele>
        <time>2017-09-03T09:07:39Z</time>
      </trkpt>
      <trkpt lat="43.7266" lon="1.72818">
        <ele>141.45</ele>
        <time>2017-09-03T09:07:51Z</time>
      </trkpt>
      <trkpt lat="43.72663" lon="1.72818">
        <ele>141.45</ele>
        <time>2017-09-03T09:07:53Z</time>
      </trkpt>
      <trkpt lat="43.72677" lon="1.72823">
        <ele>141.45</ele>
        <time>2017-09-03T09:08:06Z</time>
      </trkpt>
      <trkpt lat="43.72691" lon="1.72815">
        <ele>140.97</ele>
        <time>2017-09-03T09:08:15Z</time>
      </trkpt>
      <trkpt lat="43.72697" lon="1.72789">
        <ele>140.49</ele>
        <time>2017-09-03T09:08:31Z</time>
      </trkpt>
      <trkpt lat="43.72702" lon="1.72765">
        <ele>140.49</ele>
        <time>2017-09-03T09:08:45Z</time>
      </trkpt>
      <trkpt lat="43.72704" lon="1.72737">
        <ele>140.49</ele>
        <time>2017-09-03T09:09:01Z</time>
      </trkpt>
      <trkpt lat="43.72708" lon="1.72717">
        <ele>141.93</ele>
        <time>2017-09-03T09:09:15Z</time>
      </trkpt>
      <trkpt lat="43.72713" lon="1.72708">
        <ele>142.41</ele>
        <time>2017-09-03T09:09:22Z</time>
      </trkpt>
      <trkpt lat="43.72722" lon="1.72703">
        <ele>142.41</ele>
        <time>2017-09-03T09:09:34Z</time>
      </trkpt>
      <trkpt lat="43.72738" lon="1.72698">
        <ele>142.41</ele>
        <time>2017-09-03T09:09:49Z</time>
      </trkpt>
      <trkpt lat="43.72744" lon="1.72696">
        <ele>142.41</ele>
        <time>2017-09-03T09:09:55Z</time>
      </trkpt>
      <trkpt lat="43.72765" lon="1.7269">
        <ele>140.97</ele>
        <time>2017-09-03T09:10:12Z</time>
      </trkpt>
      <trkpt lat="43.72767" lon="1.7269">
        <ele>140.97</ele>
        <time>2017-09-03T09:10:13Z</time>
      </trkpt>
      <trkpt lat="43.72796" lon="1.7269">
        <ele>140.97</ele>
        <time>2017-09-03T09:10:31Z</time>
      </trkpt>
      <trkpt lat="43.72812" lon="1.72692">
        <ele>142.89</ele>
        <time>2017-09-03T09:10:50Z</time>
      </trkpt>
      <trkpt lat="43.72839" lon="1.727">
        <ele>143.85</ele>
        <time>2017-09-03T09:11:09Z</time>
      </trkpt>
      <trkpt lat="43.72855" lon="1.72705">
        <ele>143.85</ele>
        <time>2017-09-03T09:11:25Z</time>
      </trkpt>
      <trkpt lat="43.72882" lon="1.727">
        <ele>144.34</ele>
        <time>2017-09-03T09:11:41Z</time>
      </trkpt>
      <trkpt lat="43.72892" lon="1.72696">
        <ele>144.82</ele>
        <time>2017-09-03T09:11:59Z</time>
      </trkpt>
      <trkpt lat="43.72892" lon="1.72692">
        <ele>144.82</ele>
        <time>2017-09-03T09:12:18Z</time>
      </trkpt>
      <trkpt lat="43.72897" lon="1.72686">
        <ele>143.85</ele>
        <time>2017-09-03T09:12:35Z</time>
      </trkpt>
      <trkpt lat="43.72911" lon="1.72663">
        <ele>143.85</ele>
        <time>2017-09-03T09:12:54Z</time>
      </trkpt>
      <trkpt lat="43.72917" lon="1.72647">
        <ele>145.3</ele>
        <time>2017-09-03T09:13:05Z</time>
      </trkpt>
      <trkpt lat="43.72928" lon="1.72618">
        <ele>145.78</ele>
        <time>2017-09-03T09:13:24Z</time>
      </trkpt>
      <trkpt lat="43.72937" lon="1.72594">
        <ele>145.78</ele>
        <time>2017-09-03T09:13:40Z</time>
      </trkpt>
      <trkpt lat="43.72945" lon="1.72571">
        <ele>147.22</ele>
        <time>2017-09-03T09:13:56Z</time>
      </trkpt>
      <trkpt lat="43.72951" lon="1.72552">
        <ele>147.22</ele>
        <time>2017-09-03T09:14:09Z</time>
      </trkpt>
      <trkpt lat="43.72956" lon="1.7252">
        <ele>148.66</ele>
        <time>2017-09-03T09:14:30Z</time>
      </trkpt>
      <trkpt lat="43.72961" lon="1.72495">
        <ele>149.14</ele>
        <time>2017-09-03T09:14:44Z</time>
      </trkpt>
      <trkpt lat="43.72968" lon="1.72471">
        <ele>151.54</ele>
        <time>2017-09-03T09:15:01Z</time>
      </trkpt>
      <trkpt lat="43.72989" lon="1.72455">
        <ele>152.99</ele>
        <time>2017-09-03T09:15:24Z</time>
      </trkpt>
      <trkpt lat="43.72997" lon="1.7245">
        <ele>153.47</ele>
        <time>2017-09-03T09:15:41Z</time>
      </trkpt>
      <trkpt lat="43.73008" lon="1.72446">
        <ele>153.95</ele>
        <time>2017-09-03T09:15:57Z</time>
      </trkpt>
      <trkpt lat="43.73044" lon="1.72444">
        <ele>154.91</ele>
        <time>2017-09-03T09:16:16Z</time>
      </trkpt>
      <trkpt lat="43.73081" lon="1.72436">
        <ele>156.83</ele>
        <time>2017-09-03T09:16:40Z</time>
      </trkpt>
      <trkpt lat="43.73099" lon="1.72429">
        <ele>157.79</ele>
        <time>2017-09-03T09:16:58Z</time>
      </trkpt>
      <trkpt lat="43.73111" lon="1.7242">
        <ele>159.72</ele>
        <time>2017-09-03T09:17:14Z</time>
      </trkpt>
      <trkpt lat="43.7313" lon="1.72404">
        <ele>161.16</ele>
        <time>2017-09-03T09:17:33Z</time>
      </trkpt>
      <trkpt lat="43.7314" lon="1.72378">
        <ele>162.6</ele>
        <time>2017-09-03T09:17:48Z</time>
      </trkpt>
      <trkpt lat="43.73158" lon="1.72363">
        <ele>165.48</ele>
        <time>2017-09-03T09:18:09Z</time>
      </trkpt>
      <trkpt lat="43.73169" lon="1.72346">
        <ele>167.41</ele>
        <time>2017-09-03T09:18:26Z</time>
      </trkpt>
      <trkpt lat="43.73179" lon="1.72335">
        <ele>170.77</ele>
        <time>2017-09-03T09:18:44Z</time>
      </trkpt>
      <trkpt lat="43.73189" lon="1.7232">
        <ele>173.17</ele>
        <time>2017-09-03T09:19:02Z</time>
      </trkpt>
      <trkpt lat="43.732" lon="1.72302">
        <ele>174.62</ele>
        <time>2017-09-03T09:19:18Z</time>
      </trkpt>
      <trkpt lat="43.73214" lon="1.72279">
        <ele>177.5</ele>
        <time>2017-09-03T09:19:40Z</time>
      </trkpt>
      <trkpt lat="43.7322" lon="1.72256">
        <ele>178.46</ele>
        <time>2017-09-03T09:20:00Z</time>
      </trkpt>
      <trkpt lat="43.73226" lon="1.72241">
        <ele>180.38</ele>
        <time>2017-09-03T09:20:17Z</time>
      </trkpt>
      <trkpt lat="43.73231" lon="1.72212">
        <ele>182.79</ele>
        <time>2017-09-03T09:20:34Z</time>
      </trkpt>
      <trkpt lat="43.7324" lon="1.72191">
        <ele>185.67</ele>
        <time>2017-09-03T09:20:53Z</time>
      </trkpt>
      <trkpt lat="43.73246" lon="1.72175">
        <ele>187.11</ele>
        <time>2017-09-03T09:21:09Z</time>
      </trkpt>
      <trkpt lat="43.73254" lon="1.7216">
        <ele>188.56</ele>
        <time>2017-09-03T09:21:23Z</time>
      </trkpt>
      <trkpt lat="43.7326" lon="1.72141">
        <ele>190.48</ele>
        <time>2017-09-03T09:21:38Z</time>
      </trkpt>
      <trkpt lat="43.73268" lon="1.72117">
        <ele>191.92</ele>
        <time>2017-09-03T09:21:54Z</time>
      </trkpt>
      <trkpt lat="43.73272" lon="1.72103">
        <ele>192.4</ele>
        <time>2017-09-03T09:22:03Z</time>
      </trkpt>
      <trkpt lat="43.73279" lon="1.72079">
        <ele>191.92</ele>
        <time>2017-09-03T09:22:19Z</time>
      </trkpt>
      <trkpt lat="43.73286" lon="1.72053">
        <ele>192.88</ele>
        <time>2017-09-03T09:22:36Z</time>
      </trkpt>
      <trkpt lat="43.73292" lon="1.72021">
        <ele>192.88</ele>
        <time>2017-09-03T09:22:53Z</time>
      </trkpt>
      <trkpt lat="43.73296" lon="1.71999">
        <ele>193.36</ele>
        <time>2017-09-03T09:23:09Z</time>
      </trkpt>
      <trkpt lat="43.733" lon="1.71968">
        <ele>193.84</ele>
        <time>2017-09-03T09:23:26Z</time>
      </trkpt>
      <trkpt lat="43.73301" lon="1.7196">
        <ele>193.84</ele>
        <time>2017-09-03T09:23:31Z</time>
      </trkpt>
      <trkpt lat="43.73308" lon="1.71933">
        <ele>193.84</ele>
        <time>2017-09-03T09:23:47Z</time>
      </trkpt>
      <trkpt lat="43.73312" lon="1.71912">
        <ele>193.84</ele>
        <time>2017-09-03T09:24:00Z</time>
      </trkpt>
      <trkpt lat="43.73322" lon="1.7188">
        <ele>193.84</ele>
        <time>2017-09-03T09:24:21Z</time>
      </trkpt>
      <trkpt lat="43.73326" lon="1.71868">
        <ele>193.84</ele>
        <time>2017-09-03T09:24:30Z</time>
      </trkpt>
      <trkpt lat="43.73338" lon="1.71837">
        <ele>193.84</ele>
        <time>2017-09-03T09:24:51Z</time>
      </trkpt>
      <trkpt lat="43.73345" lon="1.7181">
        <ele>193.84</ele>
        <time>2017-09-03T09:25:09Z</time>
      </trkpt>
      <trkpt lat="43.73354" lon="1.71784">
        <ele>193.36</ele>
        <time>2017-09-03T09:25:27Z</time>
      </trkpt>
      <trkpt lat="43.73361" lon="1.71763">
        <ele>193.36</ele>
        <time>2017-09-03T09:25:42Z</time>
      </trkpt>
      <trkpt lat="43.73375" lon="1.71747">
        <ele>193.36</ele>
        <time>2017-09-03T09:25:57Z</time>
      </trkpt>
      <trkpt lat="43.73385" lon="1.71731">
        <ele>192.88</ele>
        <time>2017-09-03T09:26:11Z</time>
      </trkpt>
      <trkpt lat="43.73385" lon="1.71705">
        <ele>193.36</ele>
        <time>2017-09-03T09:26:25Z</time>
      </trkpt>
      <trkpt lat="43.73385" lon="1.71698">
        <ele>193.36</ele>
        <time>2017-09-03T09:26:29Z</time>
      </trkpt>
      <trkpt lat="43.73382" lon="1.71679">
        <ele>193.36</ele>
        <time>2017-09-03T09:26:44Z</time>
      </trkpt>
      <trkpt lat="43.73373" lon="1.71666">
        <ele>192.88</ele>
        <time>2017-09-03T09:27:02Z</time>
      </trkpt>
      <trkpt lat="43.7337" lon="1.71656">
        <ele>192.88</ele>
        <time>2017-09-03T09:27:41Z</time>
      </trkpt>
      <trkpt lat="43.7338" lon="1.71646">
        <ele>193.36</ele>
        <time>2017-09-03T09:27:55Z</time>
      </trkpt>
      <trkpt lat="43.73383" lon="1.71636">
        <ele>193.36</ele>
        <time>2017-09-03T09:28:11Z</time>
      </trkpt>
    </trkseg>
  </trk>
</gpx>